Time;durP1;ratioP1;P1;durP2;ratioP2;P2;SDS_P1;SDS_P2;PMS_P1;PMS_P2;Temp;Humidity;BMP_temperature;BMP_pressure;BME280_temperature;BME280_humidity;BME280_pressure;Samples;Min_cycle;Max_cycle;Signal;HPM_P1;HPM_P2
2024/01/06 00:01:14;;;;;;;;;;;-4.10;99.90;;;;;;5051280;28;19929;-60
2024/01/06 00:03:42;;;;;;;;;;;-4.00;99.90;;;;;;5055439;28;19925;-61
2024/01/06 00:06:11;;;;;;;;;;;-4.00;99.90;;;;;;5049647;28;20022;-61
2024/01/06 00:08:38;;;;;;;;;;;-4.00;99.90;;;;;;5052043;28;20031;-63
2024/01/06 00:11:05;;;;;;;;;;;-4.00;99.90;;;;;;5051171;28;19970;-59
2024/01/06 00:13:32;;;;;;;;;;;-4.00;99.90;;;;;;5051816;28;20381;-60
2024/01/06 00:16:00;;;;;;;;;;;-4.00;99.90;;;;;;5048401;28;19932;-62
2024/01/06 00:18:27;;;;;;;;;;;-4.00;99.90;;;;;;5033235;28;19929;-60
2024/01/06 00:20:54;;;;;;;;;;;-4.10;99.90;;;;;;5045227;28;20449;-66
2024/01/06 00:23:21;;;;;;;;;;;-4.10;99.90;;;;;;5043334;28;19935;-62
2024/01/06 00:25:47;;;;;;;;;;;-4.10;99.90;;;;;;5046611;28;20014;-62
2024/01/06 00:28:14;;;;;;;;;;;-4.10;99.90;;;;;;5036855;28;19956;-59
2024/01/06 00:30:41;;;;;;;;;;;-4.10;99.90;;;;;;5047359;28;19928;-62
2024/01/06 00:33:08;;;;;;;;;;;-4.00;99.90;;;;;;5044343;28;19925;-61
2024/01/06 00:35:35;;;;;;;;;;;-4.10;99.90;;;;;;5052511;28;19925;-59
2024/01/06 00:38:02;;;;;;;;;;;-4.00;99.90;;;;;;5047977;28;20768;-66
2024/01/06 00:40:29;;;;;;;;;;;-4.10;99.90;;;;;;5057287;28;19932;-61
2024/01/06 00:42:56;;;;;;;;;;;-4.10;99.90;;;;;;5053767;28;19929;-60
2024/01/06 00:45:22;;;;;;;;;;;-4.10;99.90;;;;;;5051146;28;19928;-59
2024/01/06 00:47:49;;;;;;;;;;;-4.10;99.90;;;;;;5045878;28;19933;-57
2024/01/06 00:50:19;;;;;;;;;;;-4.10;99.90;;;;;;5033483;28;20670;-59
2024/01/06 00:52:46;;;;;;;;;;;-4.10;99.90;;;;;;5054977;28;19929;-58
2024/01/06 00:55:13;;;;;;;;;;;-4.00;99.90;;;;;;5059670;28;19943;-59
2024/01/06 00:57:40;;;;;;;;;;;-4.00;99.90;;;;;;5053537;28;20345;-59
2024/01/06 01:00:07;;;;;;;;;;;-4.00;99.90;;;;;;5056588;28;19971;-58
2024/01/06 01:02:34;;;;;;;;;;;-4.00;99.90;;;;;;5051736;28;19963;-62
2024/01/06 01:05:07;;;;;;;;;;;-4.00;99.90;;;;;;5051610;28;19929;-61
2024/01/06 01:07:34;;;;;;;;;;;-4.00;99.90;;;;;;5047020;28;19982;-60
2024/01/06 01:10:01;;;;;;;;;;;-4.00;99.90;;;;;;5051057;28;20099;-59
2024/01/06 01:12:27;;;;;;;;;;;-3.90;99.90;;;;;;5049225;28;19925;-57
2024/01/06 01:14:54;;;;;;;;;;;-3.90;99.90;;;;;;5047541;28;19931;-62
2024/01/06 01:17:21;;;;;;;;;;;-3.90;99.90;;;;;;5059985;28;19960;-58
2024/01/06 01:19:48;;;;;;;;;;;-3.90;99.90;;;;;;5053051;28;20023;-58
2024/01/06 01:22:15;;;;;;;;;;;-3.90;99.90;;;;;;5054604;28;19928;-58
2024/01/06 01:24:42;;;;;;;;;;;-3.90;99.90;;;;;;5055990;28;19925;-59
2024/01/06 01:27:09;;;;;;;;;;;-3.90;99.90;;;;;;5049049;28;19944;-60
2024/01/06 01:29:36;;;;;;;;;;;-3.90;99.90;;;;;;5049947;28;20243;-66
2024/01/06 01:32:03;;;;;;;;;;;-3.90;99.90;;;;;;5051089;28;20019;-61
2024/01/06 01:34:30;;;;;;;;;;;-3.90;99.90;;;;;;5056564;28;19924;-61
2024/01/06 01:36:57;;;;;;;;;;;-3.90;99.90;;;;;;5064804;28;19994;-62
2024/01/06 01:39:23;;;;;;;;;;;-3.90;99.90;;;;;;5054303;28;19978;-60
2024/01/06 01:41:50;;;;;;;;;;;-3.90;99.90;;;;;;5058928;28;20297;-58
2024/01/06 01:44:18;;;;;;;;;;;-3.90;99.90;;;;;;5055373;28;19933;-59
2024/01/06 01:46:45;;;;;;;;;;;-3.90;99.90;;;;;;5049881;28;19955;-61
2024/01/06 01:49:12;;;;;;;;;;;-3.90;99.90;;;;;;5051502;28;19964;-59
2024/01/06 01:51:39;;;;;;;;;;;-3.90;99.90;;;;;;5050023;28;19931;-58
2024/01/06 01:54:07;;;;;;;;;;;-3.90;99.90;;;;;;5052440;28;19928;-58
2024/01/06 01:56:34;;;;;;;;;;;-3.90;99.90;;;;;;5049162;28;19928;-60
2024/01/06 01:59:21;;;;;;;;;;;-3.90;99.90;;;;;;5039941;28;20032;-57
2024/01/06 02:01:49;;;;;;;;;;;-4.00;99.90;;;;;;5048689;28;19925;-59
2024/01/06 02:04:16;;;;;;;;;;;-3.90;99.90;;;;;;5052541;28;19933;-62
2024/01/06 02:06:43;;;;;;;;;;;-3.90;99.90;;;;;;5047436;28;20009;-62
2024/01/06 02:09:11;;;;;;;;;;;-3.90;99.90;;;;;;5051045;28;19935;-60
2024/01/06 02:11:38;;;;;;;;;;;-3.90;99.90;;;;;;5050109;28;19978;-57
2024/01/06 02:14:05;;;;;;;;;;;-3.90;99.90;;;;;;5033043;28;19971;-59
2024/01/06 02:16:31;;;;;;;;;;;-3.90;99.90;;;;;;5048940;28;19932;-60
2024/01/06 02:18:58;;;;;;;;;;;-3.80;99.90;;;;;;5050799;28;19970;-58
2024/01/06 02:21:27;;;;;;;;;;;-3.80;99.90;;;;;;5049714;28;20399;-60
2024/01/06 02:23:54;;;;;;;;;;;-3.80;99.90;;;;;;5056064;28;19967;-58
2024/01/06 02:26:21;;;;;;;;;;;-3.80;99.90;;;;;;5044416;28;19932;-63
2024/01/06 02:28:49;;;;;;;;;;;-3.80;99.90;;;;;;5055383;28;20016;-57
2024/01/06 02:31:16;;;;;;;;;;;-3.70;99.90;;;;;;5046535;28;19929;-59
2024/01/06 02:33:42;;;;;;;;;;;-3.80;99.90;;;;;;5038970;28;19925;-59
2024/01/06 02:36:09;;;;;;;;;;;-3.80;99.90;;;;;;5052164;28;20007;-60
2024/01/06 02:38:36;;;;;;;;;;;-3.80;99.90;;;;;;5045847;28;21065;-64
2024/01/06 02:41:03;;;;;;;;;;;-3.80;99.90;;;;;;5046589;28;19925;-57
2024/01/06 02:43:30;;;;;;;;;;;-3.80;99.90;;;;;;5047228;28;19970;-59
2024/01/06 02:45:57;;;;;;;;;;;-3.80;99.90;;;;;;5043688;28;19928;-61
2024/01/06 02:48:24;;;;;;;;;;;-3.80;99.90;;;;;;5047461;28;19929;-59
2024/01/06 02:50:51;;;;;;;;;;;-3.80;99.90;;;;;;5052852;28;19942;-58
2024/01/06 02:53:17;;;;;;;;;;;-3.80;99.90;;;;;;5051086;28;20597;-59
2024/01/06 02:55:45;;;;;;;;;;;-3.70;99.90;;;;;;5050172;28;19939;-58
2024/01/06 02:58:11;;;;;;;;;;;-3.70;99.90;;;;;;5052706;28;19952;-58
2024/01/06 03:00:38;;;;;;;;;;;-3.70;99.90;;;;;;5053363;28;19924;-59
2024/01/06 03:03:05;;;;;;;;;;;-3.80;99.90;;;;;;5050124;28;20014;-59
2024/01/06 03:05:32;;;;;;;;;;;-3.80;99.90;;;;;;5047469;28;20027;-58
2024/01/06 03:07:59;;;;;;;;;;;-3.80;99.90;;;;;;5048312;28;20313;-60
2024/01/06 03:10:26;;;;;;;;;;;-3.70;99.90;;;;;;5054274;28;20433;-60
2024/01/06 03:12:53;;;;;;;;;;;-3.70;99.90;;;;;;5050164;28;19929;-63
2024/01/06 03:15:20;;;;;;;;;;;-3.70;99.90;;;;;;5048699;28;20770;-59
2024/01/06 03:17:47;;;;;;;;;;;-3.70;99.90;;;;;;5055723;28;20013;-64
2024/01/06 03:20:14;;;;;;;;;;;-3.80;99.90;;;;;;5050202;28;20047;-58
2024/01/06 03:22:41;;;;;;;;;;;-3.80;99.90;;;;;;5046335;28;19936;-59
2024/01/06 03:25:08;;;;;;;;;;;-3.80;99.90;;;;;;5047416;28;19932;-60
2024/01/06 03:27:35;;;;;;;;;;;-3.80;99.90;;;;;;5050482;28;20272;-57
2024/01/06 03:30:01;;;;;;;;;;;-3.80;99.90;;;;;;5048990;28;20835;-58
2024/01/06 03:32:28;;;;;;;;;;;-3.70;99.90;;;;;;5043989;28;20559;-58
2024/01/06 03:34:55;;;;;;;;;;;-3.70;99.90;;;;;;5047241;28;19929;-64
2024/01/06 03:37:22;;;;;;;;;;;-3.70;99.90;;;;;;5047593;28;19978;-58
2024/01/06 03:39:49;;;;;;;;;;;-3.80;99.90;;;;;;5048007;28;19924;-59
2024/01/06 03:42:16;;;;;;;;;;;-3.80;99.90;;;;;;5051426;28;19974;-60
2024/01/06 03:44:43;;;;;;;;;;;-3.80;99.90;;;;;;5055039;28;19924;-58
2024/01/06 03:47:10;;;;;;;;;;;-3.70;99.90;;;;;;5046885;28;19955;-59
2024/01/06 03:49:37;;;;;;;;;;;-3.70;99.90;;;;;;5043813;28;19936;-58
2024/01/06 03:52:04;;;;;;;;;;;-3.60;99.90;;;;;;5047241;28;19924;-58
2024/01/06 03:54:31;;;;;;;;;;;-3.70;99.90;;;;;;5043080;28;19937;-58
2024/01/06 03:56:57;;;;;;;;;;;-3.70;99.90;;;;;;5046428;28;19936;-61
2024/01/06 03:59:24;;;;;;;;;;;-3.70;99.90;;;;;;5050630;28;20378;-58
2024/01/06 04:01:51;;;;;;;;;;;-3.70;99.90;;;;;;5051321;28;20515;-60
2024/01/06 04:04:18;;;;;;;;;;;-3.70;99.90;;;;;;5046477;28;19933;-63
2024/01/06 04:06:45;;;;;;;;;;;-3.70;99.90;;;;;;5048297;28;19988;-61
2024/01/06 04:09:11;;;;;;;;;;;-3.70;99.90;;;;;;5053972;28;20324;-58
2024/01/06 04:11:41;;;;;;;;;;;-3.80;99.90;;;;;;5048794;28;19932;-57
2024/01/06 04:14:08;;;;;;;;;;;-3.80;99.90;;;;;;5049640;28;20394;-61
2024/01/06 04:16:34;;;;;;;;;;;-3.70;99.90;;;;;;5045895;28;19928;-60
2024/01/06 04:19:01;;;;;;;;;;;-3.60;99.90;;;;;;5055999;28;20013;-60
2024/01/06 04:21:28;;;;;;;;;;;-3.60;99.90;;;;;;5057811;28;19986;-61
2024/01/06 04:23:55;;;;;;;;;;;-3.60;99.90;;;;;;5052225;28;19929;-61
2024/01/06 04:26:22;;;;;;;;;;;-3.60;99.90;;;;;;5047531;28;20571;-60
2024/01/06 04:28:49;;;;;;;;;;;-3.60;99.90;;;;;;5050504;28;19939;-61
2024/01/06 04:31:16;;;;;;;;;;;-3.60;99.90;;;;;;5052031;28;20060;-58
2024/01/06 04:33:43;;;;;;;;;;;-3.60;99.90;;;;;;5046207;28;20025;-64
2024/01/06 04:36:10;;;;;;;;;;;-3.60;99.90;;;;;;5047095;28;20329;-61
2024/01/06 04:38:37;;;;;;;;;;;-3.60;99.90;;;;;;5040242;28;19928;-57
2024/01/06 04:41:03;;;;;;;;;;;-3.60;99.90;;;;;;5045042;28;20303;-63
2024/01/06 04:43:30;;;;;;;;;;;-3.60;99.90;;;;;;5055100;28;19925;-60
2024/01/06 04:45:58;;;;;;;;;;;-3.50;99.90;;;;;;5040942;28;19931;-62
2024/01/06 04:48:24;;;;;;;;;;;-3.50;99.90;;;;;;5049487;28;19925;-58
2024/01/06 04:50:52;;;;;;;;;;;-3.50;99.90;;;;;;5050943;28;19925;-59
2024/01/06 04:53:19;;;;;;;;;;;-3.50;99.90;;;;;;5047920;28;20019;-60
2024/01/06 04:55:46;;;;;;;;;;;-3.50;99.90;;;;;;5053960;28;19925;-61
2024/01/06 04:58:12;;;;;;;;;;;-3.50;99.90;;;;;;5051242;28;20422;-59
2024/01/06 05:00:39;;;;;;;;;;;-3.50;99.90;;;;;;5048689;28;19928;-61
2024/01/06 05:03:06;;;;;;;;;;;-3.60;99.90;;;;;;5043521;28;19933;-59
2024/01/06 05:05:33;;;;;;;;;;;-3.50;99.90;;;;;;5046607;28;19925;-59
2024/01/06 05:08:01;;;;;;;;;;;-3.60;99.90;;;;;;5051153;28;20297;-63
2024/01/06 05:10:28;;;;;;;;;;;-3.60;99.90;;;;;;5043103;28;19961;-60
2024/01/06 05:12:54;;;;;;;;;;;-3.60;99.90;;;;;;5049508;28;20307;-62
2024/01/06 05:15:21;;;;;;;;;;;-3.60;99.90;;;;;;5051863;28;19935;-59
2024/01/06 05:17:48;;;;;;;;;;;-3.60;99.90;;;;;;5048962;28;19933;-62
2024/01/06 05:20:15;;;;;;;;;;;-3.60;99.90;;;;;;5050326;28;19928;-61
2024/01/06 05:22:42;;;;;;;;;;;-3.60;99.90;;;;;;5051883;28;19983;-61
2024/01/06 05:25:09;;;;;;;;;;;-3.60;99.90;;;;;;5048638;28;19939;-58
2024/01/06 05:27:36;;;;;;;;;;;-3.70;99.90;;;;;;5050477;28;19932;-59
2024/01/06 05:30:03;;;;;;;;;;;-3.70;99.90;;;;;;5048638;28;19974;-58
2024/01/06 05:32:29;;;;;;;;;;;-3.70;99.90;;;;;;5052724;28;19929;-58
2024/01/06 05:34:56;;;;;;;;;;;-3.70;99.90;;;;;;5051908;28;19951;-63
2024/01/06 05:37:23;;;;;;;;;;;-3.60;99.90;;;;;;5047722;28;20008;-61
2024/01/06 05:39:50;;;;;;;;;;;-3.60;99.90;;;;;;5050415;28;19929;-58
2024/01/06 05:42:17;;;;;;;;;;;-3.60;99.90;;;;;;5054428;28;20349;-59
2024/01/06 05:44:44;;;;;;;;;;;-3.60;99.90;;;;;;5050648;28;19931;-59
2024/01/06 05:47:11;;;;;;;;;;;-3.60;99.90;;;;;;5051545;28;19932;-64
2024/01/06 05:49:41;;;;;;;;;;;-3.60;99.90;;;;;;5048579;28;20432;-61
2024/01/06 05:52:08;;;;;;;;;;;-3.60;99.90;;;;;;5048542;28;19982;-58
2024/01/06 05:54:34;;;;;;;;;;;-3.60;99.90;;;;;;5050750;28;19932;-59
2024/01/06 05:57:02;;;;;;;;;;;-3.60;99.90;;;;;;5048700;28;19931;-58
2024/01/06 05:59:32;;;;;;;;;;;-3.60;99.90;;;;;;5051424;28;19933;-60
2024/01/06 06:01:58;;;;;;;;;;;-3.50;99.90;;;;;;5057012;28;19928;-61
2024/01/06 06:04:25;;;;;;;;;;;-3.50;99.90;;;;;;5057036;28;19933;-57
2024/01/06 06:06:52;;;;;;;;;;;-3.50;99.90;;;;;;5052688;28;20045;-60
2024/01/06 06:09:21;;;;;;;;;;;-3.50;99.90;;;;;;5049574;28;19932;-62
2024/01/06 06:11:48;;;;;;;;;;;-3.60;99.90;;;;;;5050622;28;20382;-58
2024/01/06 06:14:15;;;;;;;;;;;-3.50;99.90;;;;;;5052620;28;19979;-57
2024/01/06 06:16:42;;;;;;;;;;;-3.50;99.90;;;;;;5050604;28;19971;-60
2024/01/06 06:19:10;;;;;;;;;;;-3.50;99.90;;;;;;5055766;28;20320;-60
2024/01/06 06:21:37;;;;;;;;;;;-3.50;99.90;;;;;;5052457;28;19935;-58
2024/01/06 06:24:04;;;;;;;;;;;-3.60;99.90;;;;;;5052626;28;19928;-59
2024/01/06 06:26:32;;;;;;;;;;;-3.60;99.90;;;;;;5068957;28;19928;-58
2024/01/06 06:29:00;;;;;;;;;;;-3.60;99.90;;;;;;5050882;28;20350;-58
2024/01/06 06:31:27;;;;;;;;;;;-3.50;99.90;;;;;;5043441;28;20019;-58
2024/01/06 06:33:54;;;;;;;;;;;-3.50;99.90;;;;;;5045525;28;19929;-60
2024/01/06 06:36:21;;;;;;;;;;;-3.50;99.90;;;;;;5047968;28;20024;-63
2024/01/06 06:38:48;;;;;;;;;;;-3.50;99.90;;;;;;5047070;28;19959;-62
2024/01/06 06:41:16;;;;;;;;;;;-3.60;99.90;;;;;;5048695;28;19939;-59
2024/01/06 06:43:42;;;;;;;;;;;-3.50;99.90;;;;;;5047875;28;19982;-60
2024/01/06 06:46:09;;;;;;;;;;;-3.50;99.90;;;;;;5048692;28;19932;-63
2024/01/06 06:48:36;;;;;;;;;;;-3.60;99.90;;;;;;5047005;28;20034;-60
2024/01/06 06:51:03;;;;;;;;;;;-3.50;99.90;;;;;;5052256;28;19939;-61
2024/01/06 06:53:30;;;;;;;;;;;-3.50;99.90;;;;;;5048575;28;20425;-65
2024/01/06 06:55:57;;;;;;;;;;;-3.50;99.90;;;;;;5045212;28;19925;-60
2024/01/06 06:58:23;;;;;;;;;;;-3.50;99.90;;;;;;5048337;28;19928;-58
2024/01/06 07:00:50;;;;;;;;;;;-3.50;99.90;;;;;;5043464;28;19925;-61
2024/01/06 07:03:17;;;;;;;;;;;-3.60;99.90;;;;;;5040669;28;19937;-63
2024/01/06 07:05:44;;;;;;;;;;;-3.60;99.90;;;;;;5049294;28;19925;-64
2024/01/06 07:08:13;;;;;;;;;;;-3.60;99.90;;;;;;5051872;28;19928;-62
2024/01/06 07:10:40;;;;;;;;;;;-3.60;99.90;;;;;;5045307;28;19940;-62
2024/01/06 07:13:07;;;;;;;;;;;-3.50;99.90;;;;;;5052992;28;19951;-65
2024/01/06 07:15:33;;;;;;;;;;;-3.50;99.90;;;;;;5051162;28;19935;-59
2024/01/06 07:18:00;;;;;;;;;;;-3.50;99.90;;;;;;5048393;28;19924;-65
2024/01/06 07:20:27;;;;;;;;;;;-3.40;99.90;;;;;;5047464;28;19939;-59
2024/01/06 07:22:54;;;;;;;;;;;-3.50;99.90;;;;;;5046461;28;19929;-59
2024/01/06 07:25:21;;;;;;;;;;;-3.50;99.90;;;;;;5045698;28;19932;-61
2024/01/06 07:27:48;;;;;;;;;;;-3.50;99.90;;;;;;5046995;28;20298;-59
2024/01/06 07:30:18;;;;;;;;;;;-3.50;99.90;;;;;;5055245;28;19924;-62
2024/01/06 07:32:45;;;;;;;;;;;-3.40;99.90;;;;;;5050052;28;19971;-60
2024/01/06 07:35:12;;;;;;;;;;;-3.40;99.90;;;;;;5050813;28;19924;-61
2024/01/06 07:37:38;;;;;;;;;;;-3.40;99.90;;;;;;5049423;28;19947;-58
2024/01/06 07:40:05;;;;;;;;;;;-3.50;99.90;;;;;;5046960;28;19964;-62
2024/01/06 07:42:32;;;;;;;;;;;-3.40;99.90;;;;;;5053301;28;20102;-62
2024/01/06 07:44:59;;;;;;;;;;;-3.40;99.90;;;;;;5048893;28;19964;-61
2024/01/06 07:47:26;;;;;;;;;;;-3.50;99.90;;;;;;5045406;28;19925;-64
2024/01/06 07:49:53;;;;;;;;;;;-3.50;99.90;;;;;;5044532;28;20295;-62
2024/01/06 07:52:20;;;;;;;;;;;-3.50;99.90;;;;;;5042239;28;20361;-60
2024/01/06 07:54:48;;;;;;;;;;;-3.40;99.90;;;;;;5048399;28;19928;-58
2024/01/06 07:57:15;;;;;;;;;;;-3.40;99.90;;;;;;5053710;28;19928;-59
2024/01/06 07:59:42;;;;;;;;;;;-3.40;99.90;;;;;;5051541;28;20411;-59
2024/01/06 08:02:09;;;;;;;;;;;-3.40;99.90;;;;;;5046059;28;19924;-59
2024/01/06 08:04:36;;;;;;;;;;;-3.40;99.90;;;;;;5049450;28;19978;-60
2024/01/06 08:07:03;;;;;;;;;;;-3.40;99.90;;;;;;5050409;28;19977;-66
2024/01/06 08:09:30;;;;;;;;;;;-3.40;99.90;;;;;;5045700;28;19925;-59
2024/01/06 08:11:56;;;;;;;;;;;-3.30;99.90;;;;;;5048809;28;20490;-63
2024/01/06 08:14:23;;;;;;;;;;;-3.30;99.90;;;;;;5050640;28;19924;-63
2024/01/06 08:16:50;;;;;;;;;;;-3.30;99.90;;;;;;5051336;28;19931;-60
2024/01/06 08:19:17;;;;;;;;;;;-3.30;99.90;;;;;;5047187;28;19966;-63
2024/01/06 08:21:44;;;;;;;;;;;-3.20;99.90;;;;;;5045112;28;20370;-59
2024/01/06 08:24:11;;;;;;;;;;;-3.20;99.90;;;;;;5052860;28;19929;-59
2024/01/06 08:26:38;;;;;;;;;;;-3.20;99.90;;;;;;5055241;28;19928;-60
2024/01/06 08:29:05;;;;;;;;;;;-3.20;99.90;;;;;;5044905;28;19929;-62
2024/01/06 08:31:31;;;;;;;;;;;-3.20;99.90;;;;;;5049819;28;19933;-58
2024/01/06 08:33:58;;;;;;;;;;;-3.20;99.90;;;;;;5045802;28;20291;-63
2024/01/06 08:36:25;;;;;;;;;;;-3.20;99.90;;;;;;5042434;28;19943;-66
2024/01/06 08:38:52;;;;;;;;;;;-3.20;99.90;;;;;;5046807;28;19925;-58
2024/01/06 08:41:19;;;;;;;;;;;-3.10;99.90;;;;;;5054785;28;19936;-59
2024/01/06 08:43:46;;;;;;;;;;;-3.10;99.90;;;;;;5064247;28;20035;-59
2024/01/06 08:46:12;;;;;;;;;;;-3.10;99.90;;;;;;5053940;28;19931;-58
2024/01/06 08:48:39;;;;;;;;;;;-3.10;99.90;;;;;;5045675;28;20024;-59
2024/01/06 08:51:06;;;;;;;;;;;-3.10;99.90;;;;;;5031018;28;19970;-59
2024/01/06 08:53:33;;;;;;;;;;;-3.10;99.90;;;;;;5042468;28;19955;-66
2024/01/06 08:56:00;;;;;;;;;;;-3.10;99.90;;;;;;5038888;28;20336;-63
2024/01/06 08:58:27;;;;;;;;;;;-3.10;99.90;;;;;;5045513;28;19925;-59
2024/01/06 09:00:54;;;;;;;;;;;-3.10;99.90;;;;;;5052671;28;19975;-59
2024/01/06 09:03:25;;;;;;;;;;;-3.00;99.90;;;;;;5050807;28;19972;-64
2024/01/06 09:05:54;;;;;;;;;;;-3.10;99.90;;;;;;5049745;28;19925;-61
2024/01/06 09:08:20;;;;;;;;;;;-3.00;99.90;;;;;;5048865;28;19936;-61
2024/01/06 09:10:47;;;;;;;;;;;-3.00;99.90;;;;;;5055141;28;19946;-60
2024/01/06 09:13:14;;;;;;;;;;;-3.00;99.90;;;;;;5053936;28;20438;-62
2024/01/06 09:15:41;;;;;;;;;;;-2.90;99.90;;;;;;5054829;28;19968;-60
2024/01/06 09:18:08;;;;;;;;;;;-3.00;99.90;;;;;;5051499;28;19936;-59
2024/01/06 09:20:35;;;;;;;;;;;-2.90;99.90;;;;;;5047013;28;19925;-61
2024/01/06 09:23:02;;;;;;;;;;;-2.90;99.90;;;;;;5049934;28;19929;-61
2024/01/06 09:25:29;;;;;;;;;;;-2.90;99.90;;;;;;5053229;28;19925;-62
2024/01/06 09:27:56;;;;;;;;;;;-2.90;99.90;;;;;;5048176;28;19983;-61
2024/01/06 09:30:23;;;;;;;;;;;-2.90;99.90;;;;;;5057345;28;19944;-60
2024/01/06 09:32:50;;;;;;;;;;;-2.90;99.90;;;;;;5059629;28;19959;-61
2024/01/06 09:35:17;;;;;;;;;;;-2.90;99.90;;;;;;5049196;28;19929;-60
2024/01/06 09:37:43;;;;;;;;;;;-2.90;99.90;;;;;;5050624;28;20513;-59
2024/01/06 09:40:12;;;;;;;;;;;-2.90;99.90;;;;;;5052048;28;19925;-59
2024/01/06 09:42:39;;;;;;;;;;;-2.80;99.90;;;;;;5052198;28;20027;-60
2024/01/06 09:45:07;;;;;;;;;;;-2.80;99.90;;;;;;5050190;28;20313;-62
2024/01/06 09:47:34;;;;;;;;;;;-2.80;99.90;;;;;;5049486;28;19957;-59
2024/01/06 09:50:04;;;;;;;;;;;-2.80;99.90;;;;;;5052189;28;19933;-61
2024/01/06 09:52:32;;;;;;;;;;;-2.80;99.90;;;;;;5054475;28;19948;-58
2024/01/06 09:54:59;;;;;;;;;;;-2.80;99.90;;;;;;5050200;28;20036;-62
2024/01/06 09:57:26;;;;;;;;;;;-2.80;99.90;;;;;;5057788;28;19929;-59
2024/01/06 09:59:54;;;;;;;;;;;-2.70;99.90;;;;;;5048551;28;19929;-59
2024/01/06 10:02:22;;;;;;;;;;;-2.70;99.90;;;;;;5057727;28;19990;-62
2024/01/06 10:04:49;;;;;;;;;;;-2.70;99.90;;;;;;5048528;28;20028;-59
2024/01/06 10:07:17;;;;;;;;;;;-2.70;99.90;;;;;;5048417;28;20011;-62
2024/01/06 10:09:43;;;;;;;;;;;-2.70;99.90;;;;;;5052045;28;20329;-59
2024/01/06 10:12:10;;;;;;;;;;;-2.70;99.90;;;;;;5052343;28;19931;-60
2024/01/06 10:14:38;;;;;;;;;;;-2.70;99.90;;;;;;5057973;28;19929;-62
2024/01/06 10:17:06;;;;;;;;;;;-2.70;99.90;;;;;;5059404;28;19931;-60
2024/01/06 10:19:32;;;;;;;;;;;-2.70;99.90;;;;;;5049474;28;20013;-61
2024/01/06 10:22:02;;;;;;;;;;;-2.70;99.90;;;;;;5051970;28;19956;-60
2024/01/06 10:24:30;;;;;;;;;;;-2.60;99.90;;;;;;5054292;28;19974;-62
2024/01/06 10:26:57;;;;;;;;;;;-2.60;99.90;;;;;;5048483;28;19929;-65
2024/01/06 10:29:24;;;;;;;;;;;-2.60;99.90;;;;;;5052215;28;19933;-61
2024/01/06 10:31:52;;;;;;;;;;;-2.50;99.90;;;;;;5050237;28;19925;-61
2024/01/06 10:34:21;;;;;;;;;;;-2.60;99.90;;;;;;5049319;28;19929;-62
2024/01/06 10:36:49;;;;;;;;;;;-2.60;99.90;;;;;;5055108;28;19929;-59
2024/01/06 10:39:16;;;;;;;;;;;-2.60;99.90;;;;;;5052906;28;20032;-59
2024/01/06 10:41:44;;;;;;;;;;;-2.60;99.90;;;;;;5053816;28;20110;-62
2024/01/06 10:44:11;;;;;;;;;;;-2.60;99.90;;;;;;5048201;28;20305;-59
2024/01/06 10:46:38;;;;;;;;;;;-2.60;99.90;;;;;;5052803;28;20647;-58
2024/01/06 10:49:08;;;;;;;;;;;-2.50;99.90;;;;;;5051872;28;19982;-60
2024/01/06 10:51:36;;;;;;;;;;;-2.50;99.90;;;;;;5045495;28;19931;-60
2024/01/06 10:54:03;;;;;;;;;;;-2.50;99.90;;;;;;5050342;28;19972;-61
2024/01/06 10:56:30;;;;;;;;;;;-2.50;99.90;;;;;;5048938;28;19925;-68
2024/01/06 10:58:57;;;;;;;;;;;-2.50;99.90;;;;;;5055275;28;20024;-63
2024/01/06 11:01:24;;;;;;;;;;;-2.50;99.90;;;;;;5050570;28;20449;-64
2024/01/06 11:03:55;;;;;;;;;;;-2.50;99.90;;;;;;5051761;28;20511;-59
2024/01/06 11:06:23;;;;;;;;;;;-2.40;99.90;;;;;;5056286;28;19960;-60
2024/01/06 11:08:56;;;;;;;;;;;-2.40;99.90;;;;;;5050848;28;19994;-59
2024/01/06 11:11:24;;;;;;;;;;;-2.40;99.90;;;;;;5050004;28;19935;-63
2024/01/06 11:13:51;;;;;;;;;;;-2.50;99.90;;;;;;5049780;28;20406;-60
2024/01/06 11:16:34;;;;;;;;;;;-2.40;99.90;;;;;;5048238;28;19925;-59
2024/01/06 11:19:00;;;;;;;;;;;-2.40;99.90;;;;;;5049865;28;19998;-62
2024/01/06 11:21:32;;;;;;;;;;;-2.40;99.90;;;;;;5043944;28;19925;-61
2024/01/06 11:24:11;;;;;;;;;;;-2.50;99.90;;;;;;5044904;28;19956;-65
2024/01/06 11:26:39;;;;;;;;;;;-2.50;99.90;;;;;;5054287;28;19985;-62
2024/01/06 11:29:06;;;;;;;;;;;-2.50;99.90;;;;;;5053376;28;20015;-64
2024/01/06 11:31:33;;;;;;;;;;;-2.50;99.90;;;;;;5055630;28;19959;-61
2024/01/06 11:34:14;;;;;;;;;;;-2.50;99.90;;;;;;5053326;28;19925;-65
2024/01/06 11:36:46;;;;;;;;;;;-2.50;99.90;;;;;;5048702;28;19972;-60
2024/01/06 11:39:31;;;;;;;;;;;-2.50;99.90;;;;;;5050239;28;19939;-59
2024/01/06 11:41:59;;;;;;;;;;;-2.50;99.90;;;;;;5044836;28;19925;-64
2024/01/06 11:44:28;;;;;;;;;;;-2.50;99.90;;;;;;5045346;28;20298;-59
2024/01/06 11:46:58;;;;;;;;;;;-2.50;99.90;;;;;;5045889;28;20330;-62
2024/01/06 11:49:27;;;;;;;;;;;-2.50;99.90;;;;;;5051401;28;19925;-62
2024/01/06 11:51:54;;;;;;;;;;;-2.50;99.90;;;;;;5047663;28;19928;-58
2024/01/06 11:54:21;;;;;;;;;;;-2.50;99.90;;;;;;5053146;28;20547;-59
2024/01/06 11:56:53;;;;;;;;;;;-2.50;99.90;;;;;;5050098;28;19967;-60
2024/01/06 11:59:20;;;;;;;;;;;-2.60;99.90;;;;;;5049228;28;19975;-65
2024/01/06 12:01:46;;;;;;;;;;;-2.60;99.90;;;;;;5048858;28;20028;-59
2024/01/06 12:04:14;;;;;;;;;;;-2.60;99.90;;;;;;5048511;28;19965;-58
2024/01/06 12:06:41;;;;;;;;;;;-2.60;99.90;;;;;;5047003;28;20402;-61
2024/01/06 12:09:10;;;;;;;;;;;-2.60;99.90;;;;;;5057495;28;19928;-59
2024/01/06 12:11:37;;;;;;;;;;;-2.60;99.90;;;;;;5049229;28;19925;-59
2024/01/06 12:14:04;;;;;;;;;;;-2.60;99.90;;;;;;5045040;28;19932;-60
2024/01/06 12:16:32;;;;;;;;;;;-2.50;99.90;;;;;;5045977;28;19979;-60
2024/01/06 12:19:03;;;;;;;;;;;-2.50;99.90;;;;;;5052329;28;19929;-64
2024/01/06 12:21:31;;;;;;;;;;;-2.50;99.90;;;;;;5045863;28;20691;-60
2024/01/06 12:24:12;;;;;;;;;;;-2.50;99.90;;;;;;5049425;28;20375;-66
2024/01/06 12:26:40;;;;;;;;;;;-2.50;99.90;;;;;;5045349;28;20386;-59
2024/01/06 12:29:07;;;;;;;;;;;-2.50;99.90;;;;;;5047978;28;19924;-61
2024/01/06 12:31:34;;;;;;;;;;;-2.50;99.90;;;;;;5044821;28;19933;-59
2024/01/06 12:34:07;;;;;;;;;;;-2.60;99.90;;;;;;5051183;28;20314;-61
2024/01/06 12:36:35;;;;;;;;;;;-2.50;99.90;;;;;;5056749;28;19940;-59
2024/01/06 12:39:02;;;;;;;;;;;-2.50;99.90;;;;;;5063419;28;20313;-60
2024/01/06 12:41:29;;;;;;;;;;;-2.50;99.90;;;;;;5053033;28;19998;-58
2024/01/06 12:43:56;;;;;;;;;;;-2.50;99.90;;;;;;5053269;28;20019;-66
2024/01/06 12:46:24;;;;;;;;;;;-2.50;99.90;;;;;;5055664;28;19979;-63
2024/01/06 12:48:50;;;;;;;;;;;-2.60;99.90;;;;;;5052881;28;19932;-59
2024/01/06 12:51:18;;;;;;;;;;;-2.60;99.90;;;;;;5048392;28;19936;-59
2024/01/06 12:53:44;;;;;;;;;;;-2.60;99.90;;;;;;5052934;28;19933;-60
2024/01/06 12:56:14;;;;;;;;;;;-2.60;99.90;;;;;;5049791;28;20021;-58
2024/01/06 12:58:41;;;;;;;;;;;-2.60;99.90;;;;;;5060993;28;19932;-58
2024/01/06 13:01:08;;;;;;;;;;;-2.60;99.90;;;;;;5052982;28;19929;-62
2024/01/06 13:03:34;;;;;;;;;;;-2.60;99.90;;;;;;5060132;28;19931;-59
2024/01/06 13:06:02;;;;;;;;;;;-2.60;99.90;;;;;;5055874;28;20347;-61
2024/01/06 13:08:29;;;;;;;;;;;-2.60;99.90;;;;;;5054845;28;19925;-61
2024/01/06 13:10:57;;;;;;;;;;;-2.60;99.90;;;;;;5054120;28;20023;-60
2024/01/06 13:13:24;;;;;;;;;;;-2.50;99.90;;;;;;5054762;28;19928;-60
2024/01/06 13:15:51;;;;;;;;;;;-2.50;99.90;;;;;;5049103;28;19964;-61
2024/01/06 13:18:18;;;;;;;;;;;-2.50;99.90;;;;;;5050823;28;19928;-59
2024/01/06 13:20:45;;;;;;;;;;;-2.60;99.90;;;;;;5055168;28;19957;-60
2024/01/06 13:23:12;;;;;;;;;;;-2.60;99.90;;;;;;5055954;28;19968;-60
2024/01/06 13:25:40;;;;;;;;;;;-2.60;99.90;;;;;;5055322;28;19940;-62
2024/01/06 13:28:07;;;;;;;;;;;-2.50;99.90;;;;;;5050591;28;19931;-62
2024/01/06 13:30:34;;;;;;;;;;;-2.50;99.90;;;;;;5055130;28;19933;-59
2024/01/06 13:33:01;;;;;;;;;;;-2.50;99.90;;;;;;5055820;28;19925;-62
2024/01/06 13:35:29;;;;;;;;;;;-2.50;99.90;;;;;;5044445;28;20513;-60
2024/01/06 13:37:55;;;;;;;;;;;-2.50;99.90;;;;;;5047044;28;19947;-59
2024/01/06 13:40:23;;;;;;;;;;;-2.50;99.90;;;;;;5039665;28;19928;-60
2024/01/06 13:42:54;;;;;;;;;;;-2.50;99.90;;;;;;5044399;28;19932;-59
2024/01/06 13:45:21;;;;;;;;;;;-2.50;99.90;;;;;;5052222;28;19929;-63
2024/01/06 13:47:48;;;;;;;;;;;-2.50;99.90;;;;;;5034913;28;20254;-65
2024/01/06 13:50:16;;;;;;;;;;;-2.50;99.90;;;;;;5051252;28;20363;-59
2024/01/06 13:52:43;;;;;;;;;;;-2.50;99.90;;;;;;5051414;28;20013;-59
2024/01/06 13:55:10;;;;;;;;;;;-2.50;99.90;;;;;;5053958;28;19939;-65
2024/01/06 13:57:41;;;;;;;;;;;-2.50;99.90;;;;;;5054765;28;20360;-62
2024/01/06 14:00:14;;;;;;;;;;;-2.50;99.90;;;;;;5048767;28;19928;-61
2024/01/06 14:02:47;;;;;;;;;;;-2.50;99.90;;;;;;5051058;28;20399;-59
2024/01/06 14:05:14;;;;;;;;;;;-2.50;99.90;;;;;;5049694;28;20327;-60
2024/01/06 14:07:45;;;;;;;;;;;-2.50;99.90;;;;;;5048314;28;19926;-59
2024/01/06 14:10:12;;;;;;;;;;;-2.50;99.90;;;;;;5051190;28;19931;-59
2024/01/06 14:12:40;;;;;;;;;;;-2.50;99.90;;;;;;5057147;28;19924;-60
2024/01/06 14:15:08;;;;;;;;;;;-2.50;99.90;;;;;;5051640;28;19932;-62
2024/01/06 14:17:35;;;;;;;;;;;-2.50;99.90;;;;;;5053052;28;19951;-59